sensor_id;sensor_type;location;lat;lon;timestamp;P1;durP1;ratioP1;P2;durP2;ratioP2
67195;SDS011;54122;53.538;49.366;2022-07-05T00:00:55;6.75;;;4.10;;
67195;SDS011;54122;53.538;49.366;2022-07-05T00:03:21;6.80;;;3.70;;
67195;SDS011;54122;53.538;49.366;2022-07-05T00:05:47;8.88;;;3.97;;
67195;SDS011;54122;53.538;49.366;2022-07-05T00:08:13;7.90;;;3.63;;
67195;SDS011;54122;53.538;49.366;2022-07-05T00:10:40;13.05;;;3.90;;
67195;SDS011;54122;53.538;49.366;2022-07-05T00:13:06;9.70;;;3.20;;
67195;SDS011;54122;53.538;49.366;2022-07-05T00:15:33;17.30;;;4.03;;
67195;SDS011;54122;53.538;49.366;2022-07-05T00:17:59;10.45;;;3.40;;
67195;SDS011;54122;53.538;49.366;2022-07-05T00:20:25;5.85;;;3.75;;
67195;SDS011;54122;53.538;49.366;2022-07-05T00:22:52;9.05;;;3.42;;
67195;SDS011;54122;53.538;49.366;2022-07-05T00:25:18;7.18;;;3.75;;
67195;SDS011;54122;53.538;49.366;2022-07-05T00:27:44;8.77;;;3.72;;
67195;SDS011;54122;53.538;49.366;2022-07-05T00:30:11;6.07;;;4.22;;
67195;SDS011;54122;53.538;49.366;2022-07-05T00:32:37;5.28;;;3.58;;
67195;SDS011;54122;53.538;49.366;2022-07-05T00:35:04;7.07;;;3.17;;
67195;SDS011;54122;53.538;49.366;2022-07-05T00:37:31;7.63;;;3.17;;
67195;SDS011;54122;53.538;49.366;2022-07-05T00:39:58;6.60;;;2.95;;
67195;SDS011;54122;53.538;49.366;2022-07-05T00:42:24;7.55;;;2.90;;
67195;SDS011;54122;53.538;49.366;2022-07-05T00:44:50;7.60;;;2.80;;
67195;SDS011;54122;53.538;49.366;2022-07-05T00:47:17;11.48;;;3.10;;
67195;SDS011;54122;53.538;49.366;2022-07-05T00:49:43;10.63;;;2.97;;
67195;SDS011;54122;53.538;49.366;2022-07-05T00:52:10;6.13;;;2.80;;
67195;SDS011;54122;53.538;49.366;2022-07-05T00:54:38;11.13;;;3.20;;
67195;SDS011;54122;53.538;49.366;2022-07-05T00:57:06;5.68;;;3.08;;
67195;SDS011;54122;53.538;49.366;2022-07-05T00:59:33;5.95;;;2.97;;
67195;SDS011;54122;53.538;49.366;2022-07-05T01:01:59;4.22;;;2.25;;
67195;SDS011;54122;53.538;49.366;2022-07-05T01:04:26;10.40;;;2.58;;
67195;SDS011;54122;53.538;49.366;2022-07-05T01:06:53;5.05;;;2.58;;
67195;SDS011;54122;53.538;49.366;2022-07-05T01:09:20;9.88;;;2.50;;
67195;SDS011;54122;53.538;49.366;2022-07-05T01:11:47;4.95;;;2.30;;
67195;SDS011;54122;53.538;49.366;2022-07-05T01:14:19;8.07;;;2.00;;
67195;SDS011;54122;53.538;49.366;2022-07-05T01:16:47;10.82;;;2.50;;
67195;SDS011;54122;53.538;49.366;2022-07-05T01:19:14;7.20;;;1.88;;
67195;SDS011;54122;53.538;49.366;2022-07-05T01:21:42;7.15;;;1.75;;
67195;SDS011;54122;53.538;49.366;2022-07-05T01:24:11;6.30;;;1.98;;
67195;SDS011;54122;53.538;49.366;2022-07-05T01:26:39;7.85;;;1.90;;
67195;SDS011;54122;53.538;49.366;2022-07-05T01:29:06;6.03;;;1.88;;
67195;SDS011;54122;53.538;49.366;2022-07-05T01:31:36;11.38;;;2.03;;
67195;SDS011;54122;53.538;49.366;2022-07-05T01:34:03;13.10;;;1.95;;
67195;SDS011;54122;53.538;49.366;2022-07-05T01:36:31;3.63;;;1.65;;
67195;SDS011;54122;53.538;49.366;2022-07-05T01:38:58;10.27;;;1.90;;
67195;SDS011;54122;53.538;49.366;2022-07-05T01:41:26;11.30;;;2.00;;
67195;SDS011;54122;53.538;49.366;2022-07-05T01:43:52;9.15;;;1.65;;
67195;SDS011;54122;53.538;49.366;2022-07-05T01:46:18;9.68;;;2.10;;
67195;SDS011;54122;53.538;49.366;2022-07-05T01:48:47;6.15;;;1.52;;
67195;SDS011;54122;53.538;49.366;2022-07-05T01:51:24;5.97;;;1.52;;
67195;SDS011;54122;53.538;49.366;2022-07-05T01:53:55;7.85;;;1.45;;
67195;SDS011;54122;53.538;49.366;2022-07-05T01:56:21;2.53;;;1.40;;
67195;SDS011;54122;53.538;49.366;2022-07-05T01:58:47;8.35;;;1.40;;
67195;SDS011;54122;53.538;49.366;2022-07-05T02:01:30;7.53;;;1.73;;
67195;SDS011;54122;53.538;49.366;2022-07-05T02:04:04;4.85;;;1.42;;
67195;SDS011;54122;53.538;49.366;2022-07-05T02:06:32;7.40;;;1.60;;
67195;SDS011;54122;53.538;49.366;2022-07-05T02:09:02;7.82;;;1.63;;
67195;SDS011;54122;53.538;49.366;2022-07-05T02:13:57;3.63;;;1.50;;
67195;SDS011;54122;53.538;49.366;2022-07-05T02:16:24;3.88;;;1.27;;
67195;SDS011;54122;53.538;49.366;2022-07-05T02:18:51;6.50;;;1.35;;
67195;SDS011;54122;53.538;49.366;2022-07-05T02:21:17;4.25;;;1.33;;
67195;SDS011;54122;53.538;49.366;2022-07-05T02:23:44;2.05;;;1.00;;
67195;SDS011;54122;53.538;49.366;2022-07-05T02:26:10;10.38;;;1.38;;
67195;SDS011;54122;53.538;49.366;2022-07-05T02:28:37;5.50;;;1.27;;
67195;SDS011;54122;53.538;49.366;2022-07-05T02:31:03;5.57;;;1.10;;
67195;SDS011;54122;53.538;49.366;2022-07-05T02:33:30;6.15;;;1.25;;
67195;SDS011;54122;53.538;49.366;2022-07-05T02:35:56;4.53;;;1.30;;
67195;SDS011;54122;53.538;49.366;2022-07-05T02:38:22;1.83;;;1.10;;
67195;SDS011;54122;53.538;49.366;2022-07-05T02:40:48;7.18;;;1.20;;
67195;SDS011;54122;53.538;49.366;2022-07-05T02:43:14;3.53;;;1.20;;
67195;SDS011;54122;53.538;49.366;2022-07-05T02:45:41;12.23;;;1.20;;
67195;SDS011;54122;53.538;49.366;2022-07-05T02:48:07;5.45;;;1.10;;
67195;SDS011;54122;53.538;49.366;2022-07-05T02:50:33;3.50;;;1.10;;
67195;SDS011;54122;53.538;49.366;2022-07-05T02:52:59;4.60;;;1.30;;
67195;SDS011;54122;53.538;49.366;2022-07-05T02:55:25;3.28;;;1.10;;
67195;SDS011;54122;53.538;49.366;2022-07-05T02:57:51;5.88;;;1.25;;
67195;SDS011;54122;53.538;49.366;2022-07-05T03:00:17;4.93;;;1.15;;
67195;SDS011;54122;53.538;49.366;2022-07-05T03:02:44;3.35;;;1.08;;
67195;SDS011;54122;53.538;49.366;2022-07-05T03:05:10;5.70;;;1.15;;
67195;SDS011;54122;53.538;49.366;2022-07-05T03:07:36;4.88;;;1.20;;
67195;SDS011;54122;53.538;49.366;2022-07-05T03:10:02;7.63;;;1.10;;
67195;SDS011;54122;53.538;49.366;2022-07-05T03:12:28;3.03;;;1.10;;
67195;SDS011;54122;53.538;49.366;2022-07-05T03:14:54;6.90;;;1.30;;
67195;SDS011;54122;53.538;49.366;2022-07-05T03:17:21;4.05;;;1.00;;
67195;SDS011;54122;53.538;49.366;2022-07-05T03:19:47;5.25;;;0.90;;
67195;SDS011;54122;53.538;49.366;2022-07-05T03:22:13;6.03;;;0.90;;
67195;SDS011;54122;53.538;49.366;2022-07-05T03:24:39;3.15;;;0.82;;
67195;SDS011;54122;53.538;49.366;2022-07-05T03:27:05;3.35;;;0.75;;
67195;SDS011;54122;53.538;49.366;2022-07-05T03:29:31;8.57;;;0.80;;
67195;SDS011;54122;53.538;49.366;2022-07-05T03:31:58;5.70;;;0.88;;
67195;SDS011;54122;53.538;49.366;2022-07-05T03:34:24;3.15;;;0.77;;
67195;SDS011;54122;53.538;49.366;2022-07-05T03:36:50;2.58;;;0.90;;
67195;SDS011;54122;53.538;49.366;2022-07-05T03:39:16;3.00;;;0.90;;
67195;SDS011;54122;53.538;49.366;2022-07-05T03:41:42;5.15;;;0.80;;
67195;SDS011;54122;53.538;49.366;2022-07-05T03:44:09;3.55;;;0.77;;
67195;SDS011;54122;53.538;49.366;2022-07-05T03:46:35;5.25;;;0.65;;
67195;SDS011;54122;53.538;49.366;2022-07-05T03:49:01;1.60;;;0.60;;
67195;SDS011;54122;53.538;49.366;2022-07-05T03:51:27;2.00;;;0.80;;
67195;SDS011;54122;53.538;49.366;2022-07-05T03:53:53;1.83;;;0.85;;
67195;SDS011;54122;53.538;49.366;2022-07-05T03:56:20;4.95;;;0.80;;
67195;SDS011;54122;53.538;49.366;2022-07-05T03:58:48;3.03;;;0.80;;
67195;SDS011;54122;53.538;49.366;2022-07-05T04:01:15;1.90;;;0.60;;
67195;SDS011;54122;53.538;49.366;2022-07-05T04:03:41;2.42;;;0.60;;
67195;SDS011;54122;53.538;49.366;2022-07-05T04:06:08;12.68;;;1.23;;
67195;SDS011;54122;53.538;49.366;2022-07-05T04:08:35;2.67;;;0.85;;
67195;SDS011;54122;53.538;49.366;2022-07-05T04:11:02;8.82;;;0.70;;
67195;SDS011;54122;53.538;49.366;2022-07-05T04:13:30;4.95;;;0.70;;
67195;SDS011;54122;53.538;49.366;2022-07-05T04:15:56;2.03;;;0.70;;
67195;SDS011;54122;53.538;49.366;2022-07-05T04:18:23;1.85;;;0.80;;
67195;SDS011;54122;53.538;49.366;2022-07-05T04:20:49;2.22;;;0.60;;
67195;SDS011;54122;53.538;49.366;2022-07-05T04:23:15;3.47;;;0.70;;
67195;SDS011;54122;53.538;49.366;2022-07-05T04:25:41;3.20;;;0.50;;
67195;SDS011;54122;53.538;49.366;2022-07-05T04:28:07;3.13;;;0.50;;
67195;SDS011;54122;53.538;49.366;2022-07-05T04:30:34;2.88;;;0.60;;
67195;SDS011;54122;53.538;49.366;2022-07-05T04:33:00;6.45;;;0.80;;
67195;SDS011;54122;53.538;49.366;2022-07-05T04:35:27;4.93;;;0.70;;
67195;SDS011;54122;53.538;49.366;2022-07-05T04:37:53;4.25;;;0.77;;
67195;SDS011;54122;53.538;49.366;2022-07-05T04:40:19;4.07;;;0.60;;
67195;SDS011;54122;53.538;49.366;2022-07-05T04:42:45;1.65;;;0.43;;
67195;SDS011;54122;53.538;49.366;2022-07-05T04:45:12;4.85;;;0.70;;
67195;SDS011;54122;53.538;49.366;2022-07-05T04:47:38;3.88;;;0.52;;
67195;SDS011;54122;53.538;49.366;2022-07-05T04:50:04;12.88;;;1.13;;
67195;SDS011;54122;53.538;49.366;2022-07-05T04:52:31;2.70;;;0.60;;
67195;SDS011;54122;53.538;49.366;2022-07-05T04:54:58;5.47;;;0.93;;
67195;SDS011;54122;53.538;49.366;2022-07-05T04:57:24;1.52;;;0.60;;
67195;SDS011;54122;53.538;49.366;2022-07-05T04:59:50;3.05;;;0.63;;
67195;SDS011;54122;53.538;49.366;2022-07-05T05:02:16;2.35;;;0.60;;
67195;SDS011;54122;53.538;49.366;2022-07-05T05:04:43;4.15;;;0.65;;
67195;SDS011;54122;53.538;49.366;2022-07-05T05:07:09;2.00;;;0.60;;
67195;SDS011;54122;53.538;49.366;2022-07-05T05:09:35;2.78;;;0.60;;
67195;SDS011;54122;53.538;49.366;2022-07-05T05:12:01;3.47;;;0.63;;
67195;SDS011;54122;53.538;49.366;2022-07-05T05:14:28;1.33;;;0.40;;
67195;SDS011;54122;53.538;49.366;2022-07-05T05:16:54;1.42;;;0.50;;
67195;SDS011;54122;53.538;49.366;2022-07-05T05:19:20;2.20;;;0.68;;
67195;SDS011;54122;53.538;49.366;2022-07-05T05:21:46;3.78;;;0.68;;
67195;SDS011;54122;53.538;49.366;2022-07-05T05:24:13;1.85;;;0.57;;
67195;SDS011;54122;53.538;49.366;2022-07-05T05:26:39;1.63;;;0.40;;
67195;SDS011;54122;53.538;49.366;2022-07-05T05:29:05;4.25;;;0.60;;
67195;SDS011;54122;53.538;49.366;2022-07-05T05:31:31;2.47;;;0.60;;
67195;SDS011;54122;53.538;49.366;2022-07-05T05:33:57;1.98;;;0.50;;
67195;SDS011;54122;53.538;49.366;2022-07-05T05:36:23;0.77;;;0.40;;
67195;SDS011;54122;53.538;49.366;2022-07-05T05:38:50;2.53;;;0.70;;
67195;SDS011;54122;53.538;49.366;2022-07-05T05:41:16;4.25;;;0.40;;
67195;SDS011;54122;53.538;49.366;2022-07-05T05:43:42;5.85;;;0.60;;
67195;SDS011;54122;53.538;49.366;2022-07-05T05:46:08;3.75;;;0.52;;
67195;SDS011;54122;53.538;49.366;2022-07-05T05:48:35;3.50;;;0.65;;
67195;SDS011;54122;53.538;49.366;2022-07-05T05:51:01;0.88;;;0.50;;
67195;SDS011;54122;53.538;49.366;2022-07-05T05:53:28;3.33;;;0.43;;
67195;SDS011;54122;53.538;49.366;2022-07-05T05:55:54;3.42;;;0.60;;
67195;SDS011;54122;53.538;49.366;2022-07-05T05:58:21;3.65;;;0.60;;
67195;SDS011;54122;53.538;49.366;2022-07-05T06:00:51;6.38;;;0.57;;
67195;SDS011;54122;53.538;49.366;2022-07-05T06:03:18;5.53;;;0.63;;
67195;SDS011;54122;53.538;49.366;2022-07-05T06:05:45;1.65;;;0.50;;
67195;SDS011;54122;53.538;49.366;2022-07-05T06:08:12;2.28;;;0.63;;
67195;SDS011;54122;53.538;49.366;2022-07-05T06:10:38;2.20;;;0.65;;
67195;SDS011;54122;53.538;49.366;2022-07-05T06:13:06;5.47;;;0.68;;
67195;SDS011;54122;53.538;49.366;2022-07-05T06:15:33;2.88;;;0.50;;
67195;SDS011;54122;53.538;49.366;2022-07-05T06:18:00;1.20;;;0.57;;
67195;SDS011;54122;53.538;49.366;2022-07-05T06:20:31;3.42;;;0.70;;
67195;SDS011;54122;53.538;49.366;2022-07-05T06:23:00;2.28;;;0.70;;
67195;SDS011;54122;53.538;49.366;2022-07-05T06:25:27;5.43;;;0.60;;
67195;SDS011;54122;53.538;49.366;2022-07-05T06:27:55;7.00;;;0.60;;
67195;SDS011;54122;53.538;49.366;2022-07-05T06:30:24;1.77;;;0.60;;
67195;SDS011;54122;53.538;49.366;2022-07-05T06:32:51;3.47;;;0.70;;
67195;SDS011;54122;53.538;49.366;2022-07-05T06:35:18;5.07;;;0.70;;
67195;SDS011;54122;53.538;49.366;2022-07-05T06:37:48;1.83;;;0.70;;
67195;SDS011;54122;53.538;49.366;2022-07-05T06:40:21;0.80;;;0.60;;
67195;SDS011;54122;53.538;49.366;2022-07-05T06:42:49;1.10;;;0.60;;
67195;SDS011;54122;53.538;49.366;2022-07-05T06:45:19;2.13;;;0.67;;
67195;SDS011;54122;53.538;49.366;2022-07-05T06:47:53;1.65;;;0.50;;
67195;SDS011;54122;53.538;49.366;2022-07-05T06:50:21;18.25;;;1.45;;
67195;SDS011;54122;53.538;49.366;2022-07-05T06:52:47;1.95;;;0.60;;
67195;SDS011;54122;53.538;49.366;2022-07-05T06:55:13;0.98;;;0.52;;
67195;SDS011;54122;53.538;49.366;2022-07-05T06:57:39;3.65;;;0.70;;
67195;SDS011;54122;53.538;49.366;2022-07-05T07:00:06;4.03;;;0.60;;
67195;SDS011;54122;53.538;49.366;2022-07-05T07:02:33;1.67;;;0.68;;
67195;SDS011;54122;53.538;49.366;2022-07-05T07:05:00;1.42;;;0.60;;
67195;SDS011;54122;53.538;49.366;2022-07-05T07:07:26;1.80;;;0.75;;
67195;SDS011;54122;53.538;49.366;2022-07-05T07:10:10;3.50;;;0.70;;
67195;SDS011;54122;53.538;49.366;2022-07-05T07:12:36;3.20;;;0.60;;
67195;SDS011;54122;53.538;49.366;2022-07-05T07:15:03;2.17;;;0.80;;
67195;SDS011;54122;53.538;49.366;2022-07-05T07:17:29;2.83;;;0.73;;
67195;SDS011;54122;53.538;49.366;2022-07-05T07:19:55;6.47;;;1.08;;
67195;SDS011;54122;53.538;49.366;2022-07-05T07:22:22;7.68;;;1.25;;
67195;SDS011;54122;53.538;49.366;2022-07-05T07:24:48;4.70;;;0.90;;
67195;SDS011;54122;53.538;49.366;2022-07-05T07:27:14;4.43;;;0.63;;
67195;SDS011;54122;53.538;49.366;2022-07-05T07:29:40;7.20;;;0.85;;
67195;SDS011;54122;53.538;49.366;2022-07-05T07:32:07;2.25;;;0.63;;
67195;SDS011;54122;53.538;49.366;2022-07-05T07:34:34;2.80;;;0.85;;
67195;SDS011;54122;53.538;49.366;2022-07-05T07:37:02;4.90;;;0.73;;
67195;SDS011;54122;53.538;49.366;2022-07-05T07:39:29;2.03;;;0.75;;
67195;SDS011;54122;53.538;49.366;2022-07-05T07:41:57;3.95;;;0.73;;
67195;SDS011;54122;53.538;49.366;2022-07-05T07:44:23;4.43;;;0.77;;
67195;SDS011;54122;53.538;49.366;2022-07-05T07:46:50;3.35;;;0.65;;
67195;SDS011;54122;53.538;49.366;2022-07-05T07:49:16;3.35;;;0.60;;
67195;SDS011;54122;53.538;49.366;2022-07-05T07:51:43;2.30;;;0.60;;
67195;SDS011;54122;53.538;49.366;2022-07-05T07:54:10;5.47;;;0.82;;
67195;SDS011;54122;53.538;49.366;2022-07-05T07:56:36;8.68;;;1.42;;
67195;SDS011;54122;53.538;49.366;2022-07-05T07:59:02;3.70;;;0.95;;
67195;SDS011;54122;53.538;49.366;2022-07-05T08:01:28;9.32;;;1.05;;
67195;SDS011;54122;53.538;49.366;2022-07-05T08:03:54;8.30;;;1.00;;
67195;SDS011;54122;53.538;49.366;2022-07-05T08:06:21;6.70;;;1.20;;
67195;SDS011;54122;53.538;49.366;2022-07-05T08:08:47;1.98;;;0.75;;
67195;SDS011;54122;53.538;49.366;2022-07-05T08:11:13;4.32;;;0.70;;
67195;SDS011;54122;53.538;49.366;2022-07-05T08:13:40;8.35;;;1.00;;
67195;SDS011;54122;53.538;49.366;2022-07-05T08:16:08;2.75;;;0.90;;
67195;SDS011;54122;53.538;49.366;2022-07-05T08:18:35;2.17;;;0.73;;
67195;SDS011;54122;53.538;49.366;2022-07-05T08:21:19;1.83;;;0.93;;
67195;SDS011;54122;53.538;49.366;2022-07-05T08:23:58;3.13;;;0.70;;
67195;SDS011;54122;53.538;49.366;2022-07-05T08:26:25;4.28;;;0.70;;
67195;SDS011;54122;53.538;49.366;2022-07-05T08:28:52;2.97;;;0.77;;
67195;SDS011;54122;53.538;49.366;2022-07-05T08:31:19;7.78;;;0.77;;
67195;SDS011;54122;53.538;49.366;2022-07-05T08:33:45;8.10;;;0.70;;
67195;SDS011;54122;53.538;49.366;2022-07-05T08:36:12;2.03;;;0.90;;
67195;SDS011;54122;53.538;49.366;2022-07-05T08:38:38;3.72;;;0.73;;
67195;SDS011;54122;53.538;49.366;2022-07-05T08:41:05;16.85;;;0.93;;
67195;SDS011;54122;53.538;49.366;2022-07-05T08:43:34;2.45;;;0.75;;
67195;SDS011;54122;53.538;49.366;2022-07-05T08:46:02;6.05;;;1.00;;
67195;SDS011;54122;53.538;49.366;2022-07-05T08:48:31;3.13;;;0.75;;
67195;SDS011;54122;53.538;49.366;2022-07-05T08:50:59;3.78;;;0.90;;
67195;SDS011;54122;53.538;49.366;2022-07-05T08:53:25;6.13;;;0.88;;
67195;SDS011;54122;53.538;49.366;2022-07-05T08:55:53;6.07;;;1.17;;
67195;SDS011;54122;53.538;49.366;2022-07-05T08:58:19;2.55;;;0.90;;
67195;SDS011;54122;53.538;49.366;2022-07-05T09:00:45;3.80;;;1.00;;
67195;SDS011;54122;53.538;49.366;2022-07-05T09:03:12;1.75;;;0.80;;
67195;SDS011;54122;53.538;49.366;2022-07-05T09:05:42;3.85;;;0.80;;
67195;SDS011;54122;53.538;49.366;2022-07-05T09:08:09;6.95;;;1.10;;
67195;SDS011;54122;53.538;49.366;2022-07-05T09:10:38;9.85;;;1.00;;
67195;SDS011;54122;53.538;49.366;2022-07-05T09:13:07;5.03;;;0.88;;
67195;SDS011;54122;53.538;49.366;2022-07-05T09:15:33;4.78;;;1.00;;
67195;SDS011;54122;53.538;49.366;2022-07-05T09:18:03;3.95;;;0.90;;
67195;SDS011;54122;53.538;49.366;2022-07-05T09:20:29;3.97;;;0.93;;
67195;SDS011;54122;53.538;49.366;2022-07-05T09:22:56;5.45;;;0.90;;
67195;SDS011;54122;53.538;49.366;2022-07-05T09:25:26;5.03;;;1.20;;
67195;SDS011;54122;53.538;49.366;2022-07-05T09:27:54;1.70;;;0.82;;
67195;SDS011;54122;53.538;49.366;2022-07-05T09:33:02;2.55;;;0.80;;
67195;SDS011;54122;53.538;49.366;2022-07-05T09:38:00;3.92;;;0.63;;
67195;SDS011;54122;53.538;49.366;2022-07-05T09:40:30;2.15;;;0.90;;
67195;SDS011;54122;53.538;49.366;2022-07-05T09:43:10;3.13;;;0.90;;
67195;SDS011;54122;53.538;49.366;2022-07-05T09:45:37;4.00;;;0.88;;
67195;SDS011;54122;53.538;49.366;2022-07-05T09:48:05;1.40;;;0.80;;
67195;SDS011;54122;53.538;49.366;2022-07-05T09:50:36;2.67;;;0.80;;
67195;SDS011;54122;53.538;49.366;2022-07-05T09:53:02;3.00;;;0.70;;
67195;SDS011;54122;53.538;49.366;2022-07-05T09:55:30;4.80;;;0.93;;
67195;SDS011;54122;53.538;49.366;2022-07-05T09:57:56;15.15;;;1.15;;
67195;SDS011;54122;53.538;49.366;2022-07-05T10:00:22;2.65;;;0.90;;
67195;SDS011;54122;53.538;49.366;2022-07-05T10:02:52;3.97;;;0.90;;
67195;SDS011;54122;53.538;49.366;2022-07-05T10:05:24;5.28;;;0.80;;
67195;SDS011;54122;53.538;49.366;2022-07-05T10:07:53;3.03;;;0.90;;
67195;SDS011;54122;53.538;49.366;2022-07-05T10:10:21;3.22;;;0.70;;
67195;SDS011;54122;53.538;49.366;2022-07-05T10:12:49;6.80;;;0.80;;
67195;SDS011;54122;53.538;49.366;2022-07-05T10:15:19;4.60;;;0.68;;
67195;SDS011;54122;53.538;49.366;2022-07-05T10:17:50;5.47;;;0.80;;
67195;SDS011;54122;53.538;49.366;2022-07-05T10:20:25;4.13;;;1.40;;
67195;SDS011;54122;53.538;49.366;2022-07-05T10:23:06;2.22;;;0.80;;
67195;SDS011;54122;53.538;49.366;2022-07-05T10:25:37;2.88;;;0.88;;
67195;SDS011;54122;53.538;49.366;2022-07-05T10:28:05;1.13;;;0.65;;
67195;SDS011;54122;53.538;49.366;2022-07-05T10:30:32;1.60;;;0.60;;
67195;SDS011;54122;53.538;49.366;2022-07-05T10:32:59;1.98;;;0.80;;
67195;SDS011;54122;53.538;49.366;2022-07-05T10:35:29;1.35;;;0.60;;
67195;SDS011;54122;53.538;49.366;2022-07-05T10:37:55;3.20;;;0.77;;
67195;SDS011;54122;53.538;49.366;2022-07-05T10:40:24;2.97;;;0.80;;
67195;SDS011;54122;53.538;49.366;2022-07-05T10:42:52;4.75;;;0.75;;
67195;SDS011;54122;53.538;49.366;2022-07-05T10:45:34;3.35;;;1.50;;
67195;SDS011;54122;53.538;49.366;2022-07-05T10:48:11;1.75;;;0.90;;
67195;SDS011;54122;53.538;49.366;2022-07-05T10:50:44;5.05;;;0.73;;
67195;SDS011;54122;53.538;49.366;2022-07-05T10:53:15;3.03;;;0.80;;
67195;SDS011;54122;53.538;49.366;2022-07-05T10:55:53;2.35;;;0.82;;
67195;SDS011;54122;53.538;49.366;2022-07-05T10:58:32;5.07;;;0.82;;
67195;SDS011;54122;53.538;49.366;2022-07-05T11:06:43;1.48;;;0.80;;
67195;SDS011;54122;53.538;49.366;2022-07-05T11:11:43;6.40;;;1.00;;
67195;SDS011;54122;53.538;49.366;2022-07-05T11:22:35;7.70;;;0.93;;
67195;SDS011;54122;53.538;49.366;2022-07-05T11:25:07;4.03;;;0.90;;
67195;SDS011;54122;53.538;49.366;2022-07-05T11:27:36;4.18;;;0.73;;
67195;SDS011;54122;53.538;49.366;2022-07-05T11:30:22;6.97;;;0.90;;
67195;SDS011;54122;53.538;49.366;2022-07-05T11:32:49;2.72;;;1.00;;
67195;SDS011;54122;53.538;49.366;2022-07-05T11:35:16;5.47;;;0.90;;
67195;SDS011;54122;53.538;49.366;2022-07-05T11:38:03;3.72;;;0.90;;
67195;SDS011;54122;53.538;49.366;2022-07-05T11:40:36;6.25;;;0.90;;
67195;SDS011;54122;53.538;49.366;2022-07-05T11:43:05;6.78;;;0.90;;
67195;SDS011;54122;53.538;49.366;2022-07-05T11:45:33;9.30;;;1.00;;
67195;SDS011;54122;53.538;49.366;2022-07-05T11:48:00;5.90;;;1.00;;
67195;SDS011;54122;53.538;49.366;2022-07-05T11:50:32;6.32;;;0.88;;
67195;SDS011;54122;53.538;49.366;2022-07-05T11:53:00;6.53;;;0.80;;
67195;SDS011;54122;53.538;49.366;2022-07-05T11:55:27;6.10;;;0.80;;
67195;SDS011;54122;53.538;49.366;2022-07-05T11:57:55;6.43;;;1.15;;
67195;SDS011;54122;53.538;49.366;2022-07-05T12:02:56;7.05;;;1.20;;
67195;SDS011;54122;53.538;49.366;2022-07-05T12:05:22;5.55;;;0.80;;
67195;SDS011;54122;53.538;49.366;2022-07-05T12:07:49;4.43;;;1.10;;
67195;SDS011;54122;53.538;49.366;2022-07-05T12:10:17;3.55;;;1.00;;
67195;SDS011;54122;53.538;49.366;2022-07-05T12:13:03;4.63;;;1.35;;
67195;SDS011;54122;53.538;49.366;2022-07-05T12:15:34;7.45;;;1.30;;
67195;SDS011;54122;53.538;49.366;2022-07-05T12:18:02;7.55;;;1.00;;
67195;SDS011;54122;53.538;49.366;2022-07-05T12:20:30;3.22;;;1.10;;
67195;SDS011;54122;53.538;49.366;2022-07-05T12:22:58;5.18;;;0.98;;
67195;SDS011;54122;53.538;49.366;2022-07-05T12:25:26;3.65;;;0.90;;
67195;SDS011;54122;53.538;49.366;2022-07-05T12:27:54;5.22;;;1.30;;
67195;SDS011;54122;53.538;49.366;2022-07-05T12:30:22;3.30;;;1.08;;
67195;SDS011;54122;53.538;49.366;2022-07-05T12:32:53;1.92;;;0.98;;
67195;SDS011;54122;53.538;49.366;2022-07-05T12:35:30;8.73;;;1.17;;
67195;SDS011;54122;53.538;49.366;2022-07-05T12:38:03;3.15;;;1.00;;
67195;SDS011;54122;53.538;49.366;2022-07-05T12:40:45;3.83;;;1.05;;
67195;SDS011;54122;53.538;49.366;2022-07-05T12:43:13;1.80;;;1.10;;
67195;SDS011;54122;53.538;49.366;2022-07-05T12:45:41;3.75;;;1.10;;
67195;SDS011;54122;53.538;49.366;2022-07-05T12:48:10;1.58;;;1.05;;
67195;SDS011;54122;53.538;49.366;2022-07-05T12:50:44;4.85;;;1.30;;
67195;SDS011;54122;53.538;49.366;2022-07-05T12:53:12;1.52;;;1.00;;
67195;SDS011;54122;53.538;49.366;2022-07-05T12:55:58;1.98;;;0.90;;
67195;SDS011;54122;53.538;49.366;2022-07-05T13:01:30;6.13;;;1.50;;
67195;SDS011;54122;53.538;49.366;2022-07-05T13:17:17;2.63;;;0.90;;
67195;SDS011;54122;53.538;49.366;2022-07-05T13:19:46;1.48;;;0.82;;
67195;SDS011;54122;53.538;49.366;2022-07-05T13:22:13;1.85;;;0.80;;
67195;SDS011;54122;53.538;49.366;2022-07-05T13:24:40;1.70;;;1.00;;
67195;SDS011;54122;53.538;49.366;2022-07-05T13:27:07;4.35;;;1.00;;
67195;SDS011;54122;53.538;49.366;2022-07-05T13:29:35;2.88;;;1.00;;
67195;SDS011;54122;53.538;49.366;2022-07-05T13:32:02;3.72;;;1.15;;
67195;SDS011;54122;53.538;49.366;2022-07-05T13:34:29;1.52;;;1.00;;
67195;SDS011;54122;53.538;49.366;2022-07-05T13:36:56;4.13;;;1.42;;
67195;SDS011;54122;53.538;49.366;2022-07-05T13:39:24;1.02;;;0.80;;
67195;SDS011;54122;53.538;49.366;2022-07-05T13:41:51;1.90;;;1.00;;
67195;SDS011;54122;53.538;49.366;2022-07-05T13:44:18;3.35;;;1.30;;
67195;SDS011;54122;53.538;49.366;2022-07-05T13:46:45;2.78;;;1.10;;
67195;SDS011;54122;53.538;49.366;2022-07-05T13:49:12;1.55;;;1.10;;
67195;SDS011;54122;53.538;49.366;2022-07-05T13:51:38;6.93;;;1.30;;
67195;SDS011;54122;53.538;49.366;2022-07-05T13:54:04;7.75;;;1.23;;
67195;SDS011;54122;53.538;49.366;2022-07-05T13:56:31;9.38;;;1.65;;
67195;SDS011;54122;53.538;49.366;2022-07-05T13:58:57;15.35;;;1.50;;
67195;SDS011;54122;53.538;49.366;2022-07-05T14:01:25;5.95;;;1.65;;
67195;SDS011;54122;53.538;49.366;2022-07-05T14:03:56;3.33;;;1.80;;
67195;SDS011;54122;53.538;49.366;2022-07-05T14:06:28;3.20;;;1.20;;
67195;SDS011;54122;53.538;49.366;2022-07-05T14:08:55;5.28;;;1.58;;
67195;SDS011;54122;53.538;49.366;2022-07-05T14:11:22;4.68;;;1.02;;
67195;SDS011;54122;53.538;49.366;2022-07-05T14:13:54;4.47;;;1.40;;
67195;SDS011;54122;53.538;49.366;2022-07-05T14:16:22;4.70;;;1.30;;
67195;SDS011;54122;53.538;49.366;2022-07-05T14:18:48;1.38;;;1.08;;
67195;SDS011;54122;53.538;49.366;2022-07-05T14:21:16;4.68;;;1.45;;
67195;SDS011;54122;53.538;49.366;2022-07-05T14:23:43;9.35;;;1.20;;
67195;SDS011;54122;53.538;49.366;2022-07-05T14:26:12;1.92;;;1.00;;
67195;SDS011;54122;53.538;49.366;2022-07-05T14:28:42;4.78;;;1.40;;
67195;SDS011;54122;53.538;49.366;2022-07-05T14:31:08;2.80;;;1.27;;
67195;SDS011;54122;53.538;49.366;2022-07-05T14:33:34;2.03;;;1.30;;
67195;SDS011;54122;53.538;49.366;2022-07-05T14:36:02;3.53;;;1.20;;
67195;SDS011;54122;53.538;49.366;2022-07-05T14:38:30;1.30;;;1.17;;
67195;SDS011;54122;53.538;49.366;2022-07-05T14:40:56;2.28;;;1.40;;
67195;SDS011;54122;53.538;49.366;2022-07-05T14:43:22;3.40;;;2.22;;
67195;SDS011;54122;53.538;49.366;2022-07-05T14:45:48;5.18;;;1.50;;
67195;SDS011;54122;53.538;49.366;2022-07-05T14:48:15;1.30;;;1.10;;
67195;SDS011;54122;53.538;49.366;2022-07-05T14:50:41;4.60;;;1.27;;
67195;SDS011;54122;53.538;49.366;2022-07-05T14:53:07;2.88;;;1.00;;
67195;SDS011;54122;53.538;49.366;2022-07-05T14:55:34;4.97;;;1.30;;
67195;SDS011;54122;53.538;49.366;2022-07-05T14:58:01;4.90;;;1.55;;
67195;SDS011;54122;53.538;49.366;2022-07-05T15:00:28;5.57;;;1.50;;
67195;SDS011;54122;53.538;49.366;2022-07-05T15:02:54;2.92;;;1.60;;
67195;SDS011;54122;53.538;49.366;2022-07-05T15:05:20;8.82;;;1.25;;
67195;SDS011;54122;53.538;49.366;2022-07-05T15:07:47;1.90;;;1.30;;
67195;SDS011;54122;53.538;49.366;2022-07-05T15:10:13;5.25;;;1.50;;
67195;SDS011;54122;53.538;49.366;2022-07-05T15:12:39;5.88;;;1.25;;
67195;SDS011;54122;53.538;49.366;2022-07-05T15:15:05;5.05;;;1.33;;
67195;SDS011;54122;53.538;49.366;2022-07-05T15:17:32;5.07;;;1.02;;
67195;SDS011;54122;53.538;49.366;2022-07-05T15:19:59;5.30;;;1.02;;